Time;durP1;ratioP1;P1;durP2;ratioP2;P2;SDS_P1;SDS_P2;PMS_P1;PMS_P2;Temp;Humidity;BMP_temperature;BMP_pressure;BME280_temperature;BME280_humidity;BME280_pressure;Samples;Min_cycle;Max_cycle;Signal;HPM_P1;HPM_P2
2023/10/06 00:01:16;;;;;;;6.38;1.23;;;;;;;14.77;86.16;102543.41;4976705;28;96820;-28
2023/10/06 00:03:44;;;;;;;2.53;1.52;;;;;;;14.77;85.70;102538.81;4974578;28;101605;-28
2023/10/06 00:06:13;;;;;;;3.63;1.50;;;;;;;14.75;85.39;102529.84;4975637;28;99559;-28
2023/10/06 00:08:40;;;;;;;3.30;1.20;;;;;;;14.70;86.28;102534.66;4975183;28;96605;-28
2023/10/06 00:11:15;;;;;;;3.30;1.70;;;;;;;14.73;85.62;102536.31;4976594;28;96807;-28
2023/10/06 00:13:51;;;;;;;5.43;1.60;;;;;;;14.64;86.21;102526.81;4974923;28;100857;-29
2023/10/06 00:16:18;;;;;;;5.72;1.75;;;;;;;14.62;86.77;102534.19;4974968;28;100870;-28
2023/10/06 00:18:44;;;;;;;5.93;1.83;;;;;;;14.61;86.45;102535.13;4976166;28;96509;-28
2023/10/06 00:21:15;;;;;;;2.70;1.58;;;;;;;14.58;86.76;102529.84;4976311;28;96806;-28
2023/10/06 00:23:44;;;;;;;2.67;1.40;;;;;;;14.57;86.52;102536.25;4974229;28;100994;-28
2023/10/06 00:26:16;;;;;;;1.80;1.13;;;;;;;14.62;86.42;102543.22;4974597;28;99013;-28
2023/10/06 00:28:44;;;;;;;7.30;1.52;;;;;;;14.53;86.79;102534.59;4974774;28;96715;-28
2023/10/06 00:31:11;;;;;;;4.65;1.30;;;;;;;14.54;86.80;102536.41;4974749;28;96886;-28
2023/10/06 00:33:42;;;;;;;4.30;1.45;;;;;;;14.50;86.35;102530.19;4974362;28;101083;-28
2023/10/06 00:36:14;;;;;;;2.85;1.30;;;;;;;14.53;86.77;102540.94;4974406;28;100981;-28
2023/10/06 00:38:42;;;;;;;4.78;1.25;;;;;;;14.53;87.10;102538.22;4976194;28;96515;-28
2023/10/06 00:41:08;;;;;;;4.68;1.70;;;;;;;14.47;86.32;102524.91;4974885;28;96833;-28
2023/10/06 00:43:36;;;;;;;3.30;1.42;;;;;;;14.46;86.43;102523.13;4975244;28;97389;-28
2023/10/06 00:46:09;;;;;;;1.73;1.08;;;;;;;14.48;86.78;102523.06;4974174;28;100850;-27
2023/10/06 00:48:41;;;;;;;2.03;1.05;;;;;;;14.48;87.05;102514.88;4974134;28;96631;-28
2023/10/06 00:51:25;;;;;;;2.65;1.00;;;;;;;14.48;86.94;102513.03;4974392;28;97009;-28
2023/10/06 00:53:52;;;;;;;6.38;1.83;;;;;;;14.43;86.81;102518.72;4975546;28;97903;-28
2023/10/06 00:56:25;;;;;;;2.90;1.20;;;;;;;14.46;87.43;102520.41;4974074;28;100914;-28
2023/10/06 00:58:51;;;;;;;2.38;0.82;;;;;;;14.44;87.24;102520.50;4975713;28;96548;-28
2023/10/06 01:01:17;;;;;;;2.38;0.90;;;;;;;14.36;87.08;102519.13;4974216;28;96992;-28
2023/10/06 01:04:10;;;;;;;5.68;1.50;;;;;;;14.36;87.33;102517.25;4975470;28;97504;-29
2023/10/06 01:06:38;;;;;;;3.65;1.17;;;;;;;14.29;87.21;102507.63;4975851;28;97925;-28
2023/10/06 01:11:51;;;;;;;2.90;1.20;;;;;;;14.31;87.27;102505.72;4974269;28;96538;-28
2023/10/06 01:14:21;;;;;;;2.25;1.23;;;;;;;14.35;87.11;102509.16;4974748;28;99958;-28
2023/10/06 01:16:49;;;;;;;3.25;1.17;;;;;;;14.38;87.12;102509.91;4973706;28;100771;-28
2023/10/06 01:19:17;;;;;;;2.67;1.13;;;;;;;14.40;87.16;102507.09;4973210;28;96690;-29
2023/10/06 01:21:47;;;;;;;5.05;1.05;;;;;;;14.34;87.62;102504.66;4973976;28;96991;-28
2023/10/06 01:24:17;;;;;;;6.10;1.42;;;;;;;14.38;87.01;102507.16;4973831;28;101282;-28
2023/10/06 01:26:43;;;;;;;5.97;1.60;;;;;;;14.41;87.13;102506.13;4975272;28;97857;-28
2023/10/06 01:29:13;;;;;;;3.40;1.15;;;;;;;14.32;87.55;102499.28;4975249;28;96802;-28
2023/10/06 01:31:40;;;;;;;4.22;1.77;;;;;;;14.24;88.31;102477.88;4974325;28;96614;-30
2023/10/06 01:34:11;;;;;;;2.53;1.27;;;;;;;14.28;87.89;102486.78;4973704;28;100952;-28
2023/10/06 01:36:40;;;;;;;4.53;1.23;;;;;;;14.28;88.02;102497.69;4975227;28;97365;-28
2023/10/06 01:39:18;;;;;;;2.00;1.00;;;;;;;14.23;88.12;102483.44;4974464;28;96651;-29
2023/10/06 01:41:46;;;;;;;5.43;1.45;;;;;;;14.22;88.67;102478.91;4975029;28;96749;-29
2023/10/06 01:44:16;;;;;;;2.90;1.30;;;;;;;14.25;88.63;102486.94;4972825;28;101120;-28
2023/10/06 01:46:43;;;;;;;2.53;1.05;;;;;;;14.24;88.62;102491.50;4973351;28;100834;-28
2023/10/06 01:49:10;;;;;;;4.72;1.75;;;;;;;14.26;88.95;102494.16;4974036;28;96723;-28
2023/10/06 01:51:39;;;;;;;3.10;1.50;;;;;;;14.23;88.51;102489.75;4973584;28;96829;-28
2023/10/06 01:54:12;;;;;;;3.75;1.27;;;;;;;14.22;88.79;102492.53;4973114;28;99403;-29
2023/10/06 01:56:44;;;;;;;2.08;1.20;;;;;;;14.26;89.01;102494.16;4989759;28;100767;-28
2023/10/06 01:59:16;;;;;;;2.22;1.45;;;;;;;14.26;88.29;102496.00;4973595;28;96634;-29
2023/10/06 02:01:43;;;;;;;2.90;1.35;;;;;;;14.22;88.43;102493.41;4975131;28;96765;-28
2023/10/06 02:04:14;;;;;;;3.47;1.70;;;;;;;14.22;88.45;102495.28;4972707;28;99093;-28
2023/10/06 02:06:47;;;;;;;4.60;1.10;;;;;;;14.19;88.64;102492.72;4974561;28;99218;-30
2023/10/06 02:09:18;;;;;;;4.53;1.05;;;;;;;14.20;88.92;102486.28;4975173;28;96787;-29
2023/10/06 02:11:44;;;;;;;2.17;1.23;;;;;;;14.18;88.66;102478.22;4973439;28;96804;-28
2023/10/06 02:14:17;;;;;;;6.07;1.55;;;;;;;14.26;88.14;102483.25;4973144;28;101208;-28
2023/10/06 02:16:44;;;;;;;4.50;1.38;;;;;;;14.24;88.42;102477.00;4973029;28;99147;-28
2023/10/06 02:19:10;;;;;;;2.20;1.33;;;;;;;14.25;88.45;102481.47;4973217;28;96606;-28
2023/10/06 02:21:42;;;;;;;4.80;1.65;;;;;;;14.20;89.83;102478.09;4973641;28;96971;-28
2023/10/06 02:24:08;;;;;;;5.35;1.52;;;;;;;14.19;88.86;102481.81;4972945;28;100953;-28
2023/10/06 02:26:37;;;;;;;5.25;1.67;;;;;;;14.22;88.50;102492.53;4973274;28;100903;-28
2023/10/06 02:29:19;;;;;;;4.57;1.17;;;;;;;14.19;88.58;102477.22;4972798;28;96879;-28
2023/10/06 02:31:44;;;;;;;3.07;1.40;;;;;;;14.21;88.76;102485.34;4978244;28;96713;-28
2023/10/06 02:34:15;;;;;;;5.93;1.48;;;;;;;14.18;89.44;102490.94;4977975;28;97955;-28
2023/10/06 02:36:41;;;;;;;4.75;1.63;;;;;;;14.18;89.25;102485.47;4976324;28;100905;-28
2023/10/06 02:39:09;;;;;;;1.70;1.08;;;;;;;14.17;89.19;102483.72;4977987;28;96586;-29
2023/10/06 02:41:35;;;;;;;4.32;1.50;;;;;;;14.16;89.16;102482.84;4976408;28;96828;-30
2023/10/06 02:44:13;;;;;;;6.25;1.67;;;;;;;14.22;88.57;102479.78;4975634;28;101013;-28
2023/10/06 02:46:39;;;;;;;3.33;1.00;;;;;;;14.17;88.73;102475.56;4977804;28;97876;-28
2023/10/06 02:49:08;;;;;;;2.95;1.30;;;;;;;14.16;88.71;102476.53;4977767;28;96550;-28
2023/10/06 02:51:41;;;;;;;2.67;1.10;;;;;;;14.12;88.78;102461.28;4976504;28;96901;-28
2023/10/06 02:54:20;;;;;;;4.22;1.55;;;;;;;14.08;88.97;102449.63;4975661;28;101372;-28
2023/10/06 02:56:47;;;;;;;1.92;1.02;;;;;;;14.12;89.13;102459.44;4976029;28;101430;-28
2023/10/06 02:59:23;;;;;;;3.75;1.30;;;;;;;14.08;89.30;102457.81;4976231;28;96650;-28
2023/10/06 03:01:52;;;;;;;4.47;1.50;;;;;;;14.12;89.14;102470.31;4977472;28;97111;-28
2023/10/06 03:04:22;;;;;;;3.60;1.85;;;;;;;14.08;89.02;102473.28;4975705;28;101282;-28
2023/10/06 03:06:55;;;;;;;6.55;1.38;;;;;;;14.08;89.16;102465.09;4977404;28;98100;-28
2023/10/06 03:09:21;;;;;;;4.20;1.75;;;;;;;14.08;89.41;102454.22;4976065;28;96704;-28
2023/10/06 03:11:49;;;;;;;2.50;1.17;;;;;;;14.02;89.62;102439.94;4977927;28;96800;-28
2023/10/06 03:14:24;;;;;;;3.33;1.40;;;;;;;13.97;89.65;102435.69;4975662;28;100889;-28
2023/10/06 03:16:51;;;;;;;3.70;1.55;;;;;;;14.01;89.69;102434.56;4975806;28;100919;-28
2023/10/06 03:19:19;;;;;;;7.10;1.92;;;;;;;14.00;89.91;102425.50;4975406;28;96788;-28
2023/10/06 03:21:48;;;;;;;4.05;1.60;;;;;;;13.98;89.91;102434.72;4975713;28;96860;-28
2023/10/06 03:24:20;;;;;;;2.92;1.52;;;;;;;14.02;89.72;102439.94;4976852;28;98535;-28
2023/10/06 03:26:46;;;;;;;3.47;1.58;;;;;;;14.00;89.99;102438.25;4976851;28;99231;-28
2023/10/06 03:29:25;;;;;;;3.13;1.35;;;;;;;14.05;89.45;102440.75;4975770;28;96505;-28
2023/10/06 03:31:50;;;;;;;3.72;1.60;;;;;;;14.01;89.33;102424.56;5005893;28;96617;-28
2023/10/06 03:34:16;;;;;;;2.50;1.40;;;;;;;14.03;89.73;102432.63;4976810;28;97984;-27
2023/10/06 03:36:51;;;;;;;2.50;1.42;;;;;;;14.02;89.27;102429.03;4975658;28;100818;-28
2023/10/06 03:39:23;;;;;;;2.70;1.45;;;;;;;14.03;89.79;102432.63;4977381;28;96502;-29
2023/10/06 03:41:55;;;;;;;;;;;;;;;14.02;89.29;102431.75;4974998;28;96846;-28
2023/10/06 03:44:26;;;;;;;2.47;1.15;;;;;;;13.96;89.79;102434.78;4974201;28;101467;-28
2023/10/06 03:46:56;;;;;;;5.03;1.60;;;;;;;14.02;89.80;102450.84;4976813;28;97800;-28
2023/10/06 03:49:22;;;;;;;3.50;1.88;;;;;;;13.99;89.61;102451.00;4975543;28;96524;-28
2023/10/06 03:51:47;;;;;;;4.43;1.60;;;;;;;14.01;89.29;102450.91;4976730;28;96886;-28
2023/10/06 03:54:12;;;;;;;3.38;1.38;;;;;;;13.97;89.53;102441.13;4976627;28;97844;-28
2023/10/06 03:56:38;;;;;;;4.80;1.63;;;;;;;13.97;90.06;102432.97;4976442;28;97289;-28
2023/10/06 03:59:12;;;;;;;2.75;1.63;;;;;;;13.99;90.05;102439.19;4976565;28;96459;-27
2023/10/06 04:01:38;;;;;;;3.92;1.73;;;;;;;13.98;89.82;102435.59;4975605;28;96853;-30
2023/10/06 04:04:04;;;;;;;3.17;1.75;;;;;;;13.97;89.79;102428.41;4974954;28;101193;-30
2023/10/06 04:06:35;;;;;;;2.88;1.63;;;;;;;13.99;89.74;102422.84;4976144;28;99598;-28
2023/10/06 04:09:01;;;;;;;4.32;1.52;;;;;;;13.95;89.65;102421.25;4976004;28;96791;-29
2023/10/06 04:11:34;;;;;;;4.78;1.60;;;;;;;13.99;89.37;102418.31;4975106;28;96838;-28
2023/10/06 04:13:59;;;;;;;7.13;1.70;;;;;;;13.98;89.50;102423.81;4974713;28;99643;-28
2023/10/06 04:16:25;;;;;;;5.85;1.80;;;;;;;13.99;89.54;102420.13;4976116;28;97369;-28
2023/10/06 04:18:50;;;;;;;2.10;1.27;;;;;;;14.00;89.78;102425.50;4976275;28;96691;-28
2023/10/06 04:21:17;;;;;;;4.90;1.35;;;;;;;13.94;89.78;102406.75;4976423;28;96810;-28
2023/10/06 04:23:42;;;;;;;5.03;2.25;;;;;;;13.99;89.69;102409.22;4974700;28;101589;-28
2023/10/06 04:26:09;;;;;;;2.75;1.63;;;;;;;14.00;89.22;102406.44;4976465;28;98304;-28
2023/10/06 04:28:35;;;;;;;4.47;1.52;;;;;;;13.99;89.25;102411.94;4974788;28;96638;-28
2023/10/06 04:31:05;;;;;;;6.32;1.65;;;;;;;13.95;89.27;102402.19;4976188;28;96838;-28
2023/10/06 04:33:31;;;;;;;4.43;1.80;;;;;;;13.99;89.22;102404.69;4975291;28;99686;-27
2023/10/06 04:36:11;;;;;;;3.22;1.55;;;;;;;13.93;89.43;102407.72;4974352;28;101142;-28
2023/10/06 04:38:40;;;;;;;4.53;2.00;;;;;;;13.98;88.98;102407.47;4976342;28;96580;-28
2023/10/06 04:41:10;;;;;;;6.15;1.88;;;;;;;13.98;88.88;102405.63;4975821;28;96781;-28
2023/10/06 04:43:45;;;;;;;6.10;1.65;;;;;;;13.98;89.08;102405.63;4975298;28;97403;-28
2023/10/06 04:46:12;;;;;;;4.38;1.58;;;;;;;13.95;89.09;102394.03;4974306;28;100832;-28
2023/10/06 04:48:38;;;;;;;5.53;1.85;;;;;;;13.94;89.45;102401.31;4974482;28;96598;-28
2023/10/06 04:51:04;;;;;;;6.15;1.40;;;;;;;13.95;89.82;102394.03;4974911;28;96950;-29
2023/10/06 04:53:34;;;;;;;3.58;1.45;;;;;;;13.93;90.31;102388.63;4972953;28;100921;-28
2023/10/06 04:56:02;;;;;;;4.43;1.67;;;;;;;13.91;90.28;102387.81;4974128;28;98986;-28
2023/10/06 04:58:29;;;;;;;3.80;1.45;;;;;;;13.92;89.88;102388.69;4973882;28;96754;-28
2023/10/06 05:00:59;;;;;;;4.07;1.58;;;;;;;13.90;89.82;102383.34;4975694;28;96841;-28
2023/10/06 05:03:26;;;;;;;6.60;1.40;;;;;;;13.95;90.13;102385.84;4974014;28;101264;-28
2023/10/06 05:05:55;;;;;;;4.88;1.60;;;;;;;13.91;89.87;102376.94;4973802;28;101260;-28
2023/10/06 05:08:21;;;;;;;3.50;1.58;;;;;;;13.93;89.98;102383.19;4975481;28;96674;-28
2023/10/06 05:10:46;;;;;;;2.85;1.42;;;;;;;13.84;89.74;102370.03;4975884;28;96809;-28
2023/10/06 05:13:14;;;;;;;5.30;1.83;;;;;;;13.90;90.04;102382.47;4975172;28;99554;-28
2023/10/06 05:15:41;;;;;;;2.85;1.60;;;;;;;13.87;89.84;102378.06;4974017;28;99437;-28
2023/10/06 05:18:07;;;;;;;3.72;1.60;;;;;;;13.92;89.92;102399.59;4975388;28;96562;-27
2023/10/06 05:20:35;;;;;;;5.72;1.80;;;;;;;13.89;89.89;102387.03;4974924;28;96924;-28
2023/10/06 05:23:07;;;;;;;6.03;1.88;;;;;;;13.83;90.38;102376.47;4973267;28;101583;-28
2023/10/06 05:25:36;;;;;;;3.85;1.60;;;;;;;13.86;90.42;102398.09;4974079;28;100453;-28
2023/10/06 05:28:03;;;;;;;4.38;1.88;;;;;;;13.85;89.86;102401.78;4973921;28;96623;-28
2023/10/06 05:30:30;;;;;;;3.70;1.48;;;;;;;13.85;90.61;102399.06;4973920;28;96918;-28
2023/10/06 05:32:59;;;;;;;2.88;1.67;;;;;;;13.81;90.63;102387.41;4974787;28;98025;-28
2023/10/06 05:35:35;;;;;;;5.97;1.80;;;;;;;13.83;90.46;102387.34;4973660;28;99183;-28
2023/10/06 05:38:03;;;;;;;4.75;1.65;;;;;;;13.83;90.68;102392.78;4975458;28;96631;-28
2023/10/06 05:40:29;;;;;;;6.30;2.13;;;;;;;13.78;90.70;102392.16;4974183;28;96822;-27
2023/10/06 05:42:55;;;;;;;3.35;1.35;;;;;;;13.82;90.91;102396.47;4973555;28;100950;-28
2023/10/06 05:45:20;;;;;;;4.30;1.70;;;;;;;13.79;90.81;102399.34;4972937;28;100903;-28
2023/10/06 05:47:46;;;;;;;11.32;2.30;;;;;;;13.80;90.98;102406.56;4974724;28;96529;-28
2023/10/06 05:50:27;;;;;;;3.05;1.48;;;;;;;13.82;91.36;102407.34;4973586;28;96903;-28
2023/10/06 05:52:59;;;;;;;6.05;2.03;;;;;;;13.79;91.29;102402.06;4974747;28;98809;-28
2023/10/06 05:55:41;;;;;;;2.08;1.40;;;;;;;13.81;90.43;102413.78;4974613;28;99781;-28
2023/10/06 05:58:14;;;;;;;;;;;;;;;13.84;90.96;102412.75;4975624;28;96534;-28
2023/10/06 06:00:52;;;;;;;5.47;1.85;;;;;;;13.84;90.66;102410.00;4973714;28;96714;-28
2023/10/06 06:03:23;;;;;;;3.50;1.80;;;;;;;13.79;91.11;102402.94;4974892;28;98062;-28
2023/10/06 06:05:57;;;;;;;4.28;2.00;;;;;;;13.83;90.71;102408.25;4974540;28;99307;-28
2023/10/06 06:08:23;;;;;;;6.40;1.73;;;;;;;13.86;90.87;102408.09;4975010;28;96650;-28
2023/10/06 06:10:49;;;;;;;4.57;1.77;;;;;;;13.84;90.76;102399.13;4975170;28;96755;-29
2023/10/06 06:13:17;;;;;;;6.10;1.73;;;;;;;13.85;90.73;102407.22;4972668;28;101061;-28
2023/10/06 06:15:43;;;;;;;10.48;1.95;;;;;;;13.87;90.99;102410.75;4973088;28;100773;-28
2023/10/06 06:18:13;;;;;;;3.20;1.77;;;;;;;13.88;90.36;102398.88;4973504;28;96732;-28
2023/10/06 06:20:41;;;;;;;5.20;2.00;;;;;;;13.87;90.78;102401.69;4973481;28;96811;-28
2023/10/06 06:23:12;;;;;;;7.70;2.40;;;;;;;13.90;90.35;102386.06;4972925;28;101391;-28
2023/10/06 06:25:38;;;;;;;5.25;2.15;;;;;;;13.90;90.76;102394.25;4973173;28;101272;-28
2023/10/06 06:28:05;;;;;;;4.05;2.10;;;;;;;13.86;91.59;102389.91;4973376;28;96933;-28
2023/10/06 06:30:33;;;;;;;3.83;2.30;;;;;;;13.90;91.25;102386.06;4973559;28;96814;-28
2023/10/06 06:33:01;;;;;;;9.13;2.10;;;;;;;13.91;91.16;102398.72;4972963;28;100608;-28
2023/10/06 06:35:28;;;;;;;2.55;1.52;;;;;;;13.92;90.68;102389.63;4972728;28;101116;-27
2023/10/06 06:38:01;;;;;;;3.70;1.83;;;;;;;13.95;90.89;102399.47;4972715;28;96772;-27
2023/10/06 06:40:28;;;;;;;3.85;1.83;;;;;;;13.95;90.96;102385.84;4974731;28;96588;-28
2023/10/06 06:42:55;;;;;;;7.05;2.17;;;;;;;13.93;90.76;102396.81;4972640;28;101538;-28
2023/10/06 06:45:24;;;;;;;5.45;2.30;;;;;;;13.98;90.36;102410.19;4972310;28;100905;-28
2023/10/06 06:47:50;;;;;;;3.67;1.75;;;;;;;13.99;90.99;102409.22;4973072;28;96658;-28
2023/10/06 06:50:17;;;;;;;4.90;2.13;;;;;;;13.97;90.64;102403.88;4973001;28;96982;-28
2023/10/06 06:52:43;;;;;;;3.88;1.88;;;;;;;14.02;91.16;102407.25;4972769;28;101286;-28
2023/10/06 06:55:17;;;;;;;6.78;2.35;;;;;;;14.03;91.01;102408.13;4973056;28;100856;-29
2023/10/06 06:57:44;;;;;;;5.18;1.83;;;;;;;14.08;90.38;102414.22;4974526;28;96575;-28
2023/10/06 07:00:16;;;;;;;3.92;2.08;;;;;;;14.09;90.94;102409.66;4972883;28;96954;-28
2023/10/06 07:02:51;;;;;;;6.18;2.35;;;;;;;14.17;90.49;102407.41;4973439;28;99411;-29
2023/10/06 07:05:18;;;;;;;3.80;1.98;;;;;;;14.19;91.07;102405.50;4972637;28;101359;-29
2023/10/06 07:07:45;;;;;;;5.85;2.25;;;;;;;14.21;90.69;102400.84;4972878;28;96797;-28
2023/10/06 07:10:13;;;;;;;7.05;2.58;;;;;;;14.30;90.27;102403.09;4972892;28;96873;-28
2023/10/06 07:12:40;;;;;;;8.18;2.17;;;;;;;14.35;90.05;102403.75;4972335;28;101037;-28
2023/10/06 07:15:14;;;;;;;4.55;1.98;;;;;;;14.45;90.21;102402.28;4973475;28;98881;-28
2023/10/06 07:17:40;;;;;;;5.18;2.30;;;;;;;14.56;89.94;102412.66;4975123;28;96670;-28
2023/10/06 07:20:09;;;;;;;4.35;2.10;;;;;;;14.61;89.90;102398.75;4977766;28;96765;-28
2023/10/06 07:22:34;;;;;;;5.20;2.53;;;;;;;14.71;89.19;102400.03;4975484;28;101334;-28
2023/10/06 07:25:02;;;;;;;5.65;1.98;;;;;;;14.90;88.70;102419.03;4977101;28;97858;-28
2023/10/06 07:27:28;;;;;;;5.13;1.95;;;;;;;14.94;88.12;102415.13;4975248;28;96616;-28
2023/10/06 07:29:54;;;;;;;5.47;2.22;;;;;;;15.08;88.06;102423.44;4975790;28;96815;-29
2023/10/06 07:32:21;;;;;;;8.80;2.85;;;;;;;15.18;87.59;102412.03;4975369;28;98971;-28
2023/10/06 07:34:47;;;;;;;9.77;2.40;;;;;;;15.29;87.14;102413.19;4975385;28;100922;-28
2023/10/06 07:37:12;;;;;;;6.85;2.58;;;;;;;15.34;86.94;102412.94;4977183;28;96672;-30
2023/10/06 07:39:37;;;;;;;4.43;2.15;;;;;;;15.44;86.87;102419.63;4977152;28;96839;-29
2023/10/06 07:42:06;;;;;;;5.40;2.47;;;;;;;15.50;86.31;102422.00;4976571;28;97906;-30
2023/10/06 07:44:33;;;;;;;5.10;2.22;;;;;;;15.48;86.42;102421.22;4974757;28;100916;-28
2023/10/06 07:47:00;;;;;;;6.20;2.40;;;;;;;15.49;86.43;102417.53;4975545;28;96606;-28
2023/10/06 07:49:27;;;;;;;5.13;2.08;;;;;;;15.54;86.50;102420.00;4975513;28;96860;-28
2023/10/06 07:51:55;;;;;;;3.63;1.98;;;;;;;15.62;86.61;102433.22;4974719;28;100959;-28
2023/10/06 07:54:23;;;;;;;7.35;2.70;;;;;;;15.62;86.36;102436.81;4976456;28;97413;-28
2023/10/06 07:56:49;;;;;;;5.45;2.38;;;;;;;15.58;86.29;102432.50;4975202;28;96757;-28
2023/10/06 07:59:14;;;;;;;5.45;1.92;;;;;;;15.55;86.41;102438.13;4976926;28;96904;-28
2023/10/06 08:01:39;;;;;;;4.72;2.13;;;;;;;15.51;86.88;102433.81;4976023;28;99370;-28
2023/10/06 08:04:05;;;;;;;3.58;1.92;;;;;;;15.53;86.96;102445.53;4976537;28;97294;-28
2023/10/06 08:06:30;;;;;;;10.38;2.55;;;;;;;15.50;86.93;102442.97;4976605;28;96696;-28
2023/10/06 08:08:56;;;;;;;6.03;2.17;;;;;;;15.53;87.36;102447.38;4975658;28;96846;-28
2023/10/06 08:11:21;;;;;;;6.10;2.03;;;;;;;15.49;87.25;102439.38;4976008;28;99510;-28
2023/10/06 08:13:46;;;;;;;6.28;2.10;;;;;;;15.50;87.52;102440.25;4976109;28;99288;-29
2023/10/06 08:16:12;;;;;;;7.45;1.98;;;;;;;15.54;87.89;102432.75;4976096;28;96593;-28
2023/10/06 08:18:39;;;;;;;6.63;1.90;;;;;;;15.58;87.68;102446.16;4974959;28;96790;-29
2023/10/06 08:21:05;;;;;;;5.38;2.00;;;;;;;15.59;87.47;102439.72;4974585;28;100937;-27
2023/10/06 08:23:31;;;;;;;3.25;1.88;;;;;;;15.73;87.31;102449.91;4975904;28;99747;-28
2023/10/06 08:25:57;;;;;;;6.88;2.17;;;;;;;15.82;87.22;102451.19;4974386;28;96791;-29
2023/10/06 08:28:26;;;;;;;5.00;2.10;;;;;;;15.87;86.87;102450.00;4974458;28;96846;-29
2023/10/06 08:30:51;;;;;;;5.88;1.90;;;;;;;16.02;86.82;102459.13;4974321;28;100943;-29
2023/10/06 08:33:17;;;;;;;11.02;1.60;;;;;;;16.05;86.45;102453.47;4974912;28;97866;-29
2023/10/06 08:35:42;;;;;;;5.45;2.15;;;;;;;16.11;86.34;102461.34;4975530;28;96686;-29
2023/10/06 08:38:09;;;;;;;4.32;2.30;;;;;;;16.07;86.51;102437.00;4975276;28;96867;-30
2023/10/06 08:40:36;;;;;;;2.40;1.60;;;;;;;16.07;86.94;102437.00;4972658;28;101321;-28
2023/10/06 08:43:02;;;;;;;4.35;2.00;;;;;;;16.11;86.49;102442.19;4974189;28;99239;-30
2023/10/06 08:45:30;;;;;;;7.05;1.83;;;;;;;16.08;86.69;102431.41;4974644;28;96624;-28
2023/10/06 08:48:01;;;;;;;4.18;1.90;;;;;;;16.14;87.36;102441.13;4972886;28;96940;-32
2023/10/06 08:50:27;;;;;;;11.07;2.08;;;;;;;16.12;87.20;102443.94;4973094;28;99485;-34
2023/10/06 08:52:57;;;;;;;4.10;1.90;;;;;;;16.21;86.50;102460.75;4971501;28;100917;-29
2023/10/06 08:55:24;;;;;;;4.10;1.67;;;;;;;16.24;86.60;102453.25;4971888;28;97117;-29
2023/10/06 08:57:51;;;;;;;3.50;1.50;;;;;;;16.23;86.80;102446.06;4972193;28;96935;-31
2023/10/06 09:00:18;;;;;;;3.88;1.58;;;;;;;16.20;86.64;102443.47;4971634;28;101312;-31
2023/10/06 09:02:47;;;;;;;2.90;1.73;;;;;;;16.32;86.65;102463.75;4972418;28;101467;-28
2023/10/06 09:05:14;;;;;;;8.50;1.88;;;;;;;16.35;86.66;102438.94;4973863;28;96621;-28
2023/10/06 09:07:57;;;;;;;3.67;1.60;;;;;;;16.49;86.56;102458.16;4975327;28;96972;-28
2023/10/06 09:10:23;;;;;;;2.53;1.45;;;;;;;16.61;86.03;102458.34;4975122;28;99172;-29
2023/10/06 09:13:04;;;;;;;4.00;1.70;;;;;;;16.62;85.90;102440.97;4975276;28;99391;-28
2023/10/06 09:15:30;;;;;;;6.35;2.28;;;;;;;16.74;85.62;102452.03;4974088;28;96998;-29
2023/10/06 09:17:59;;;;;;;2.33;1.38;;;;;;;16.82;85.73;102447.97;4974001;28;96855;-29
2023/10/06 09:20:36;;;;;;;6.68;1.33;;;;;;;16.85;85.34;102454.16;4973782;28;101330;-28
2023/10/06 09:23:03;;;;;;;4.68;1.55;;;;;;;16.82;85.33;102445.25;4975415;28;99163;-28
2023/10/06 09:25:41;;;;;;;6.78;1.48;;;;;;;16.97;85.20;102460.69;4974156;28;96589;-28
2023/10/06 09:28:13;;;;;;;2.92;1.35;;;;;;;17.03;85.06;102460.31;4974011;28;96731;-28
2023/10/06 09:31:00;;;;;;;4.32;1.63;;;;;;;17.05;85.02;102447.41;4974472;28;100135;-28
2023/10/06 09:33:27;;;;;;;8.30;1.45;;;;;;;16.96;84.52;102448.88;4975189;28;97919;-30
2023/10/06 09:36:01;;;;;;;4.25;1.73;;;;;;;16.96;84.86;102432.44;4973877;28;96550;-28
2023/10/06 09:38:26;;;;;;;4.78;1.88;;;;;;;16.95;84.94;102443.50;4973752;28;96624;-31
2023/10/06 09:40:52;;;;;;;5.65;1.88;;;;;;;16.97;85.08;102434.22;4974413;28;97461;-29
2023/10/06 09:43:19;;;;;;;3.55;1.50;;;;;;;17.03;84.80;102426.59;4974801;28;98326;-28
2023/10/06 09:45:48;;;;;;;3.80;1.58;;;;;;;17.08;84.74;102433.53;4973415;28;96647;-28
2023/10/06 09:48:17;;;;;;;8.25;2.15;;;;;;;17.24;84.51;102436.16;4974214;28;96928;-28
2023/10/06 09:50:50;;;;;;;4.88;1.48;;;;;;;17.48;84.23;102435.56;4973338;28;101273;-28
2023/10/06 09:53:19;;;;;;;3.85;1.50;;;;;;;17.68;82.95;102429.63;4974699;28;97867;-28
2023/10/06 09:55:49;;;;;;;2.33;1.20;;;;;;;17.86;82.99;102434.91;4973154;28;96641;-28
2023/10/06 09:58:17;;;;;;;3.05;1.48;;;;;;;18.08;82.00;102432.47;4973668;28;96818;-29
2023/10/06 10:00:44;;;;;;;5.38;1.80;;;;;;;18.16;81.72;102437.41;4973105;28;101236;-29
2023/10/06 10:03:12;;;;;;;5.07;1.90;;;;;;;18.25;80.98;102442.28;4973279;28;101299;-28
2023/10/06 10:05:38;;;;;;;4.50;1.50;;;;;;;18.22;81.73;102442.50;4974935;28;96713;-29
2023/10/06 10:08:05;;;;;;;7.72;1.95;;;;;;;18.27;81.17;102439.44;4975059;28;96839;-28
2023/10/06 10:10:34;;;;;;;3.40;1.52;;;;;;;18.22;80.94;102437.88;4973109;28;100681;-28
2023/10/06 10:13:34;;;;;;;8.55;1.75;;;;;;;18.30;81.16;102440.09;4973474;28;99052;-28
2023/10/06 10:16:18;;;;;;;4.50;1.90;;;;;;;18.24;80.40;102446.03;4974755;28;96812;-28
2023/10/06 10:18:52;;;;;;;2.67;1.55;;;;;;;18.05;82.15;102429.94;4974623;28;96684;-28
2023/10/06 10:21:19;;;;;;;3.05;1.65;;;;;;;17.98;81.86;102434.97;4972527;28;100921;-28
2023/10/06 10:23:45;;;;;;;9.00;1.50;;;;;;;17.91;81.49;102432.75;4972967;28;101532;-28
2023/10/06 10:26:22;;;;;;;4.15;1.67;;;;;;;17.74;82.35;102440.19;4974728;28;96738;-28
2023/10/06 10:29:09;;;;;;;7.43;1.63;;;;;;;17.76;82.69;102435.50;4974635;28;96628;-28
2023/10/06 10:31:56;;;;;;;5.28;1.90;;;;;;;17.74;83.19;102431.09;4974461;28;97975;-28
2023/10/06 10:34:22;;;;;;;3.78;1.65;;;;;;;17.65;83.63;102427.09;4973054;28;99395;-28
2023/10/06 10:37:12;;;;;;;4.07;1.35;;;;;;;17.63;83.97;102418.97;4973274;28;96806;-28
2023/10/06 10:39:51;;;;;;;4.15;1.58;;;;;;;17.59;83.53;102436.63;4974765;28;96614;-28
2023/10/06 10:42:36;;;;;;;4.38;1.42;;;;;;;17.55;84.13;102434.19;4973704;28;99296;-27
2023/10/06 10:45:31;;;;;;;5.65;1.42;;;;;;;17.61;83.92;102445.63;4973751;28;97379;-28
2023/10/06 10:47:58;;;;;;;5.28;1.52;;;;;;;17.57;84.16;102434.97;4972754;28;96770;-28
2023/10/06 10:50:52;;;;;;;6.18;1.58;;;;;;;17.57;84.24;102440.44;4973594;28;96900;-28
2023/10/06 10:53:20;;;;;;;4.50;1.40;;;;;;;17.55;84.42;102428.69;4977337;28;97998;-28
2023/10/06 10:55:46;;;;;;;3.22;1.38;;;;;;;17.53;84.26;102430.66;4977385;28;99677;-28
2023/10/06 10:58:49;;;;;;;4.22;1.75;;;;;;;17.51;84.51;102433.47;4976294;28;96634;-29
2023/10/06 11:01:31;;;;;;;3.22;1.42;;;;;;;17.47;84.55;102423.72;4976106;28;96808;-28
2023/10/06 11:04:18;;;;;;;8.60;1.58;;;;;;;17.51;84.70;102419.78;4977229;28;99224;-30
2023/10/06 11:06:48;;;;;;;7.68;1.58;;;;;;;17.53;84.48;102430.66;4976132;28;100997;-28
2023/10/06 11:12:05;;;;;;;4.25;1.50;;;;;;;17.56;84.69;102424.97;4977889;28;96444;-29
2023/10/06 11:14:38;;;;;;;2.47;1.00;;;;;;;17.55;84.86;102425.97;4976577;28;99437;-29
2023/10/06 11:17:05;;;;;;;4.03;1.77;;;;;;;17.65;84.81;102418.00;4975778;28;101142;-28
2023/10/06 11:19:32;;;;;;;5.38;1.92;;;;;;;17.73;84.43;102407.41;4975984;28;96634;-28
2023/10/06 11:22:09;;;;;;;9.40;1.60;;;;;;;17.93;83.77;102408.84;4975882;28;96812;-28
2023/10/06 11:24:35;;;;;;;4.85;1.95;;;;;;;18.21;83.06;102414.19;4975646;28;100926;-28
2023/10/06 11:27:23;;;;;;;3.30;1.20;;;;;;;18.58;82.42;102416.22;4976812;28;97952;-28
2023/10/06 11:29:52;;;;;;;4.20;1.33;;;;;;;18.72;81.65;102410.66;4975850;28;96565;-28
2023/10/06 11:32:19;;;;;;;6.55;1.73;;;;;;;18.97;80.91;102418.03;4977448;28;96847;-28
2023/10/06 11:34:45;;;;;;;8.30;1.83;;;;;;;19.15;80.27;102410.31;4975586;28;100962;-28
2023/10/06 11:37:13;;;;;;;3.35;1.40;;;;;;;19.35;78.45;102408.84;4975427;28;100846;-28
2023/10/06 11:39:39;;;;;;;4.00;1.40;;;;;;;19.47;78.41;102416.22;4975107;28;96870;-29
2023/10/06 11:42:23;;;;;;;4.50;1.63;;;;;;;19.53;79.21;102409.38;4976917;28;96949;-28